(°F)
38°
38°
38°
38°
39°
39°
38°
(°F)
29°
29°
29°
29°
29°
28°
27°
WSW
WSW
W
W
W
W
W
(mph)
9-16
10-16
10-17
10-17
11-18
12-20
13-22
(in)
0
0
0
0
0
0
0
(%)
35
41
22
15
8
15
15

Sun elevation

/ -12.2°
sun-icon
UV 1
07:17
17:13
Waning gibbous moon (222°)
18:33
11:35

METAR for 55.6°N 37.27°E (UUWW)

Time Conditions Temperature/
Dewpoint
Wind Visibility Weather Clouds Pressure Change Raw
MVFR 37.4°F / 33.8°F 250º 14kt >10km Light Rain 1.00mm precipitation Vertical Visibility of 0ft.
Broken Clouds 2800ft
1008 No Significant change. Runway 24: Wet or puddles, 51-100% contamination with <1mm, friction coefficient 0.50. UUWW 240230Z 25007MPS 9999 -RA BKN013 BKN028 03/01 Q1008 R24/290050 NOSIG
MVFR 39.2°F / 33.8°F 240º 10kt >10km Light Rain 1.00mm precipitation Vertical Visibility of 0ft.
Broken Clouds 2700ft
1008 No Significant change. Runway 24: Wet or puddles, 51-100% contamination with <1mm, friction coefficient 0.50. UUWW 240200Z 24005MPS 9999 -RA BKN013 BKN027 04/01 Q1008 R24/290050 NOSIG
MVFR 39.2°F / 35.6°F 230º 8kt >10km - Broken Clouds 1300ft
Broken Clouds 2600ft
1008 No Significant change. Runway 24: Wet or puddles, 51-100% contamination with <1mm, friction coefficient 0.50. UUWW 240130Z 23004MPS 9999 BKN013 BKN026 04/02 Q1008 R24/290050 NOSIG
MVFR 39.2°F / 35.6°F 220º 8kt >10km - Broken Clouds 1300ft
Broken Clouds 2600ft
1008 No Significant change. Runway 24: Wet or puddles, 51-100% contamination with <1mm, friction coefficient 0.50. UUWW 240100Z 22004MPS 9999 BKN013 BKN026 04/02 Q1008 R24/290050 NOSIG
MVFR 39.2°F / 35.6°F 210º 8kt >10km Light Rain 1.00mm precipitation Vertical Visibility of 0ft.
Broken Clouds 3600ft
1008 No Significant change. Runway 24: Wet or puddles, 51-100% contamination with <1mm, friction coefficient 0.50. UUWW 240030Z 21004MPS 9999 -RA BKN013 BKN036 04/02 Q1008 R24/290050 NOSIG
MVFR 39.2°F / 33.8°F 210º 8kt >10km Light Showers Rain 3.00mm precipitation Vertical Visibility of 0ft.
Broken Clouds 3600ft
1008 No Significant change. Runway 24: Wet or puddles, 51-100% contamination with <1mm, friction coefficient 0.50. UUWW 240000Z 21004MPS 9999 -SHRA BKN012 BKN036CB 04/01 Q1008 R24/290050 NOSIG
MVFR 39.2°F / 33.8°F 220º 8kt >10km Light Rain 1.00mm precipitation Vertical Visibility of 0ft.
Broken Clouds 3100ft
1008 No Significant change. Runway 24: Wet or puddles, 51-100% contamination with <1mm, friction coefficient 0.50. UUWW 232330Z 22004MPS 9999 -RA BKN011 BKN031 04/01 Q1008 R24/290050 NOSIG
MVFR 39.2°F / 33.8°F 220º 8kt >10km Light Rain 1.00mm precipitation Vertical Visibility of 0ft.
Broken Clouds 3300ft
1008 No Significant change. Runway 24: Wet or puddles, 51-100% contamination with <1mm, friction coefficient 0.50. UUWW 232300Z 22004MPS 9999 -RA BKN012 BKN033 04/01 Q1008 R24/290050 NOSIG
MVFR 39.2°F / 33.8°F 220º 10kt >10km Light Rain 1.00mm precipitation Vertical Visibility of 0ft. 1008 No Significant change UUWW 232230Z 22005MPS 9999 -RA BKN017 04/01 Q1008 R24/000070 NOSIG
MVFR 39.2°F / 33.8°F 220º 8kt >10km - Few Clouds 1200ft
Broken Clouds 2600ft
1008 No Significant change UUWW 232200Z 22004MPS 9999 FEW012 BKN026 04/01 Q1008 R24/000070 NOSIG
MVFR 39.2°F / 33.8°F 230º 10kt >10km - Broken Clouds 1400ft 1008 No Significant change UUWW 232130Z 23005MPS 9999 BKN014 04/01 Q1008 R24/000070 NOSIG
MVFR 39.2°F / 32°F 230º 10kt >10km - Broken Clouds 1300ft
Broken Clouds 3300ft
1008 No Significant change UUWW 232100Z 23005MPS 9999 BKN013 BKN033 04/00 Q1008 R24/000070 NOSIG
MVFR 37.4°F / 32°F 240º 10kt >10km - Broken Clouds 1100ft 1008 No Significant change. Runway 24: Wet or puddles, 51-100% contamination with <1mm, friction coefficient 0.50. UUWW 232030Z 24005MPS 9999 BKN011 03/00 Q1008 R24/290050 NOSIG
MVFR 37.4°F / 32°F 230º 10kt >10km - Broken Clouds 1200ft 1008 No Significant change. Runway 24: Wet or puddles, 51-100% contamination with <1mm, friction coefficient 0.50. UUWW 232000Z 23005MPS 9999 BKN012 03/00 Q1008 R24/290050 NOSIG
MVFR 37.4°F / 32°F 220º 12kt >10km - Broken Clouds 1100ft 1008 No Significant change. Runway 24: Wet or puddles, 51-100% contamination with <1mm, friction coefficient 0.50. UUWW 231930Z 22006MPS 9999 BKN011 03/00 Q1008 R24/290050 NOSIG
MVFR 37.4°F / 32°F 230º 10kt >10km - Broken Clouds 1200ft 1008 No Significant change. Runway 24: Wet or puddles, 51-100% contamination with <1mm, friction coefficient 0.50. UUWW 231900Z 23005MPS 9999 BKN012 03/M00 Q1008 R24/290050 NOSIG
VFR 37.4°F / 32°F 230º 10kt >10km - Few Clouds 2000ft 1008 No Significant change. Runway 24: Wet or puddles, 51-100% contamination with <1mm, friction coefficient 0.50. UUWW 231830Z 23005MPS 9999 FEW020 03/M00 Q1008 R24/290050 NOSIG
VFR 39.2°F / 32°F 240º 10kt >10km - Few Clouds 1400ft 1008 No Significant change. Runway 24: Wet or puddles, 51-100% contamination with <1mm, friction coefficient 0.50. UUWW 231800Z 24005MPS 9999 FEW014 04/00 Q1008 R24/290050 NOSIG
MVFR 39.2°F / 32°F 240º 10kt >10km - Broken Clouds 1600ft 1007 No Significant change. Runway 24: Wet or puddles, 51-100% contamination with <1mm, friction coefficient 0.50. UUWW 231730Z 24005MPS 9999 BKN016 04/00 Q1007 R24/290050 NOSIG
VFR 41°F / 32°F 240º 8kt >10km - Broken Clouds 3300ft 1007 No Significant change. Runway 24: Wet or puddles, 51-100% contamination with <1mm, friction coefficient 0.50. UUWW 231700Z 24004MPS 9999 BKN033 05/00 Q1007 R24/290050 NOSIG
VFR 39.2°F / 32°F 240º 8kt >10km - Few Clouds 3600ft 1007 No Significant change. Runway 24: Wet or puddles, 51-100% contamination with <1mm, friction coefficient 0.50. UUWW 231630Z 24004MPS 9999 FEW036 04/00 Q1007 R24/290050 NOSIG
VFR 41°F / 32°F 250º 10kt >10km Light Rain 1.00mm precipitation Vertical Visibility of 0ft. 1006 No Significant change. Runway 24: Wet or puddles, 51-100% contamination with <1mm, friction coefficient 0.50. UUWW 231600Z 25005MPS 9999 -RA BKN041 05/00 Q1006 R24/290050 NOSIG
VFR 41°F / 32°F 240º 10kt >10km - Clouds and Visibility OK 1006 No Significant change UUWW 231530Z 24005MPS CAVOK 05/M00 Q1006 R24/000070 NOSIG
MVFR 42.8°F / 30.2°F 250º 10kt >10km - Broken Clouds 1100ft 1006 No Significant change UUWW 231500Z 25005MPS 9999 BKN011 06/M01 Q1006 R24/000070 NOSIG

MVFR

37.4°F / 33.8°F

[More]
Wind 250º 14kt
Visibility >10km
Weather Light Rain 1.00mm precipitation
Clouds Vertical Visibility of 0ft.
Broken Clouds 2800ft
Pressure 1008
Change No Significant change. Runway 24: Wet or puddles, 51-100% contamination with <1mm, friction coefficient 0.50.
Raw UUWW 240230Z 25007MPS 9999 -RA BKN013 BKN028 03/01 Q1008 R24/290050 NOSIG

MVFR

39.2°F / 33.8°F

[More]
Wind 240º 10kt
Visibility >10km
Weather Light Rain 1.00mm precipitation
Clouds Vertical Visibility of 0ft.
Broken Clouds 2700ft
Pressure 1008
Change No Significant change. Runway 24: Wet or puddles, 51-100% contamination with <1mm, friction coefficient 0.50.
Raw UUWW 240200Z 24005MPS 9999 -RA BKN013 BKN027 04/01 Q1008 R24/290050 NOSIG

MVFR

39.2°F / 35.6°F

[More]
Wind 230º 8kt
Visibility >10km
Weather -
Clouds Broken Clouds 1300ft
Broken Clouds 2600ft
Pressure 1008
Change No Significant change. Runway 24: Wet or puddles, 51-100% contamination with <1mm, friction coefficient 0.50.
Raw UUWW 240130Z 23004MPS 9999 BKN013 BKN026 04/02 Q1008 R24/290050 NOSIG

MVFR

39.2°F / 35.6°F

[More]
Wind 220º 8kt
Visibility >10km
Weather -
Clouds Broken Clouds 1300ft
Broken Clouds 2600ft
Pressure 1008
Change No Significant change. Runway 24: Wet or puddles, 51-100% contamination with <1mm, friction coefficient 0.50.
Raw UUWW 240100Z 22004MPS 9999 BKN013 BKN026 04/02 Q1008 R24/290050 NOSIG

MVFR

39.2°F / 35.6°F

[More]
Wind 210º 8kt
Visibility >10km
Weather Light Rain 1.00mm precipitation
Clouds Vertical Visibility of 0ft.
Broken Clouds 3600ft
Pressure 1008
Change No Significant change. Runway 24: Wet or puddles, 51-100% contamination with <1mm, friction coefficient 0.50.
Raw UUWW 240030Z 21004MPS 9999 -RA BKN013 BKN036 04/02 Q1008 R24/290050 NOSIG

MVFR

39.2°F / 33.8°F

[More]
Wind 210º 8kt
Visibility >10km
Weather Light Showers Rain 3.00mm precipitation
Clouds Vertical Visibility of 0ft.
Broken Clouds 3600ft
Pressure 1008
Change No Significant change. Runway 24: Wet or puddles, 51-100% contamination with <1mm, friction coefficient 0.50.
Raw UUWW 240000Z 21004MPS 9999 -SHRA BKN012 BKN036CB 04/01 Q1008 R24/290050 NOSIG

MVFR

39.2°F / 33.8°F

[More]
Wind 220º 8kt
Visibility >10km
Weather Light Rain 1.00mm precipitation
Clouds Vertical Visibility of 0ft.
Broken Clouds 3100ft
Pressure 1008
Change No Significant change. Runway 24: Wet or puddles, 51-100% contamination with <1mm, friction coefficient 0.50.
Raw UUWW 232330Z 22004MPS 9999 -RA BKN011 BKN031 04/01 Q1008 R24/290050 NOSIG

MVFR

39.2°F / 33.8°F

[More]
Wind 220º 8kt
Visibility >10km
Weather Light Rain 1.00mm precipitation
Clouds Vertical Visibility of 0ft.
Broken Clouds 3300ft
Pressure 1008
Change No Significant change. Runway 24: Wet or puddles, 51-100% contamination with <1mm, friction coefficient 0.50.
Raw UUWW 232300Z 22004MPS 9999 -RA BKN012 BKN033 04/01 Q1008 R24/290050 NOSIG

MVFR

39.2°F / 33.8°F

[More]
Wind 220º 10kt
Visibility >10km
Weather Light Rain 1.00mm precipitation
Clouds Vertical Visibility of 0ft.
Pressure 1008
Change No Significant change
Raw UUWW 232230Z 22005MPS 9999 -RA BKN017 04/01 Q1008 R24/000070 NOSIG

MVFR

39.2°F / 33.8°F

[More]
Wind 220º 8kt
Visibility >10km
Weather -
Clouds Few Clouds 1200ft
Broken Clouds 2600ft
Pressure 1008
Change No Significant change
Raw UUWW 232200Z 22004MPS 9999 FEW012 BKN026 04/01 Q1008 R24/000070 NOSIG

MVFR

39.2°F / 33.8°F

[More]
Wind 230º 10kt
Visibility >10km
Weather -
Clouds Broken Clouds 1400ft
Pressure 1008
Change No Significant change
Raw UUWW 232130Z 23005MPS 9999 BKN014 04/01 Q1008 R24/000070 NOSIG

MVFR

39.2°F / 32°F

[More]
Wind 230º 10kt
Visibility >10km
Weather -
Clouds Broken Clouds 1300ft
Broken Clouds 3300ft
Pressure 1008
Change No Significant change
Raw UUWW 232100Z 23005MPS 9999 BKN013 BKN033 04/00 Q1008 R24/000070 NOSIG

MVFR

37.4°F / 32°F

[More]
Wind 240º 10kt
Visibility >10km
Weather -
Clouds Broken Clouds 1100ft
Pressure 1008
Change No Significant change. Runway 24: Wet or puddles, 51-100% contamination with <1mm, friction coefficient 0.50.
Raw UUWW 232030Z 24005MPS 9999 BKN011 03/00 Q1008 R24/290050 NOSIG

MVFR

37.4°F / 32°F

[More]
Wind 230º 10kt
Visibility >10km
Weather -
Clouds Broken Clouds 1200ft
Pressure 1008
Change No Significant change. Runway 24: Wet or puddles, 51-100% contamination with <1mm, friction coefficient 0.50.
Raw UUWW 232000Z 23005MPS 9999 BKN012 03/00 Q1008 R24/290050 NOSIG

MVFR

37.4°F / 32°F

[More]
Wind 220º 12kt
Visibility >10km
Weather -
Clouds Broken Clouds 1100ft
Pressure 1008
Change No Significant change. Runway 24: Wet or puddles, 51-100% contamination with <1mm, friction coefficient 0.50.
Raw UUWW 231930Z 22006MPS 9999 BKN011 03/00 Q1008 R24/290050 NOSIG

MVFR

37.4°F / 32°F

[More]
Wind 230º 10kt
Visibility >10km
Weather -
Clouds Broken Clouds 1200ft
Pressure 1008
Change No Significant change. Runway 24: Wet or puddles, 51-100% contamination with <1mm, friction coefficient 0.50.
Raw UUWW 231900Z 23005MPS 9999 BKN012 03/M00 Q1008 R24/290050 NOSIG

VFR

37.4°F / 32°F

[More]
Wind 230º 10kt
Visibility >10km
Weather -
Clouds Few Clouds 2000ft
Pressure 1008
Change No Significant change. Runway 24: Wet or puddles, 51-100% contamination with <1mm, friction coefficient 0.50.
Raw UUWW 231830Z 23005MPS 9999 FEW020 03/M00 Q1008 R24/290050 NOSIG

VFR

39.2°F / 32°F

[More]
Wind 240º 10kt
Visibility >10km
Weather -
Clouds Few Clouds 1400ft
Pressure 1008
Change No Significant change. Runway 24: Wet or puddles, 51-100% contamination with <1mm, friction coefficient 0.50.
Raw UUWW 231800Z 24005MPS 9999 FEW014 04/00 Q1008 R24/290050 NOSIG

MVFR

39.2°F / 32°F

[More]
Wind 240º 10kt
Visibility >10km
Weather -
Clouds Broken Clouds 1600ft
Pressure 1007
Change No Significant change. Runway 24: Wet or puddles, 51-100% contamination with <1mm, friction coefficient 0.50.
Raw UUWW 231730Z 24005MPS 9999 BKN016 04/00 Q1007 R24/290050 NOSIG

VFR

41°F / 32°F

[More]
Wind 240º 8kt
Visibility >10km
Weather -
Clouds Broken Clouds 3300ft
Pressure 1007
Change No Significant change. Runway 24: Wet or puddles, 51-100% contamination with <1mm, friction coefficient 0.50.
Raw UUWW 231700Z 24004MPS 9999 BKN033 05/00 Q1007 R24/290050 NOSIG

VFR

39.2°F / 32°F

[More]
Wind 240º 8kt
Visibility >10km
Weather -
Clouds Few Clouds 3600ft
Pressure 1007
Change No Significant change. Runway 24: Wet or puddles, 51-100% contamination with <1mm, friction coefficient 0.50.
Raw UUWW 231630Z 24004MPS 9999 FEW036 04/00 Q1007 R24/290050 NOSIG

VFR

41°F / 32°F

[More]
Wind 250º 10kt
Visibility >10km
Weather Light Rain 1.00mm precipitation
Clouds Vertical Visibility of 0ft.
Pressure 1006
Change No Significant change. Runway 24: Wet or puddles, 51-100% contamination with <1mm, friction coefficient 0.50.
Raw UUWW 231600Z 25005MPS 9999 -RA BKN041 05/00 Q1006 R24/290050 NOSIG

VFR

41°F / 32°F

[More]
Wind 240º 10kt
Visibility >10km
Weather -
Clouds Clouds and Visibility OK
Pressure 1006
Change No Significant change
Raw UUWW 231530Z 24005MPS CAVOK 05/M00 Q1006 R24/000070 NOSIG

MVFR

42.8°F / 30.2°F

[More]
Wind 250º 10kt
Visibility >10km
Weather -
Clouds Broken Clouds 1100ft
Pressure 1006
Change No Significant change
Raw UUWW 231500Z 25005MPS 9999 BKN011 06/M01 Q1006 R24/000070 NOSIG

TAF for 55.6°N 37.27°E (UUWW)

From till


Maximum Temperature 3ºC on . Minimum Temperature -2ºC on .
From till Wind 260º 10kt. Visibility 6000m. Broken Clouds 700ft.
Temporarly from till Light Showers Snow Light Showers Rain . Broken Clouds 400ft. Scattered Clouds 2500ft.
Becoming from till Wind 320º 12kt. Visibility 6000m. Few Clouds 400ft. Broken Clouds 1600ft.
Temporarly from till Wind 320º 19kt. Gust 33kt. Visibility 2100m. Light Showers Snow Light Showers Rain . Broken Clouds 2500ft.

Raw: TAF UUWW 240156Z 2403/2503 26005MPS 6000 BKN007 TX03/2409Z TNM02/2503Z TEMPO 2403/2406 -SHSNRA BKN004 SCT025CB BECMG 2406/2408 32006MPS FEW004 BKN016 TEMPO 2408/2416 32010G17MPS 2100 -SHSNRA BKN025CB

Current satellite and rain images for 55.6°N 37.27°E

The location marker is placed on 55.6°N 37.27°E. [More]

The real-time satellite image combines visible light during daytime with infrared radiation during nighttime. At night, the image is not dark as infrared radiation can detect temperature differences. Unfortunately, low clouds and fog are difficult to distinguish from ground temperatures and thus can be almost invisible during the night. Meteosat satellite images for Europe are updated in real-time every 5 minutes. GOES-16/GOES-17 (North & South America) and Himawari (Asia) images update every 10 minutes.

Copyright 2021 EUMETSAT / meteoblue. / Copyright 2021 meteoblue

Radar and precipitation nowcast for 55.6°N 37.27°E

Drizzle
Light
Moderate
Heavy
Very Heavy
Hail

The location marker is placed on 55.6°N 37.27°E. This animation shows the precipitation radar for the last hour, as well as a 1h forecast. Drizzle or light snow fall might be invisible for the radar. Precipitation intensity is colour coded, ranging from light blue to orange.